Wilmington Air Park (ILN)

 

Airport Diagram
Current Weather/Forecast (VFR Conditions)
METAR KILN 211454Z AUTO 26015KT 10SM FEW018 03/M01 A2984 RMK AO2 SLP129 T00331011 51006
TAF KILN 211130Z 2112/2212 23012KT P6SM FEW250 FM211600 24013G22KT P6SM SCT250 FM212200 25012KT P6SM SKC FM220800 28009KT P6SM SCT025 FM221100 29009KT P6SM BKN028

Airport Information

All Charts
General
Chart Name View
AIRPORT DIAGRAM
AIRPORT DIAGRAM
TAKEOFF MINIMUMS
ALTERNATE MINIMUMS
TAKEOFF MINIMUMS
ALTERNATE MINIMUMS

Approaches
Chart Name Download
ILS OR LOC RWY 04L
ILS OR LOC RWY 04R
ILS OR LOC RWY 22R
ILS OR LOC RWY 22L
ILS RWY 22R (SA CAT I)
ILS RWY 22L (CAT II)
ILS RWY 22R (CAT II - III)
RNAV (GPS) RWY 04L
RNAV (GPS) RWY 22R
ILS OR LOC RWY 04L
ILS OR LOC RWY 04R
ILS OR LOC RWY 22R
ILS OR LOC RWY 22L
ILS RWY 22R (SA CAT I)
ILS RWY 22L (CAT II)
ILS RWY 22R (CAT II - III)
RNAV (GPS) RWY 04L
RNAV (GPS) RWY 22R


Airport Statistics
Departures Arrivals Local
All Collected Stats since June 2016: 85 66 2
2021 Stats: 4 5 0
January Stats: 4 5 0

Inbound Traffic (Arrivals) - 0

No inbound traffic.


Outbound Traffic (Departures) - 0

No outbound traffic.


Local Traffic (Pattern) - 0

No local traffic.